Terminal Aerodrome Forecast
Issued by NWS

Home | Current Version | Previous Version | Text Only | Print | Product List | Glossary On
Versions: 1 2 3 4 5 6 7 8 9 10 11 12
000
FTUS43 KICT 211139
TAFRSL
TAF
KRSL 211139Z 2112/2212 35007KT P6SM BKN110
     FM211400 36013KT P6SM SCT080
     FM211600 01020G28KT P6SM SCT070
     FM220000 01012KT P6SM SKC
     FM220200 03008KT P6SM SKC
     FM220500 VRB04KT P6SM SKC=

USA.gov is the U.S. government's official web portal to all federal, state and local government web resources and services.